createdAt,value
2018-07-04T00:02:41.543Z,23.98
2018-07-04T00:05:26.454Z,23.97
2018-07-04T00:08:11.245Z,23.97
2018-07-04T00:10:56.034Z,24.06
2018-07-04T00:13:41.513Z,23.96
2018-07-04T00:16:26.623Z,23.78
2018-07-04T00:19:12.100Z,23.86
2018-07-04T00:21:57.269Z,23.92
2018-07-04T00:24:42.857Z,23.92
2018-07-04T00:27:28.233Z,24.00
2018-07-04T00:30:13.373Z,23.83
2018-07-04T00:32:58.373Z,23.53
2018-07-04T00:35:43.554Z,23.38
2018-07-04T00:38:28.926Z,23.51
2018-07-04T00:41:14.293Z,23.68
2018-07-04T00:43:59.442Z,23.69
2018-07-04T00:46:44.934Z,23.63
2018-07-04T00:49:30.215Z,23.57
2018-07-04T00:52:15.210Z,23.60
2018-07-04T00:55:00.072Z,23.58
2018-07-04T00:57:44.887Z,23.33
2018-07-04T01:00:29.726Z,23.34
2018-07-04T01:03:15.062Z,23.44
2018-07-04T01:06:00.493Z,23.62
2018-07-04T01:08:45.710Z,23.37
2018-07-04T01:11:31.282Z,23.32
2018-07-04T01:14:16.218Z,23.33
2018-07-04T01:17:01.343Z,23.30
2018-07-04T01:19:46.603Z,23.16
2018-07-04T01:22:31.878Z,23.38
2018-07-04T01:25:17.129Z,23.53
2018-07-04T01:28:02.310Z,23.52
2018-07-04T01:30:47.696Z,23.18
2018-07-04T01:33:32.766Z,23.29
2018-07-04T01:36:17.843Z,23.52
2018-07-04T01:39:03.463Z,23.61
2018-07-04T01:41:48.706Z,23.73
2018-07-04T01:44:33.759Z,23.76
2018-07-04T01:47:19.319Z,23.74
2018-07-04T01:50:04.242Z,23.63
2018-07-04T01:52:49.290Z,23.39
2018-07-04T01:55:34.163Z,23.41
2018-07-04T01:58:19.206Z,23.30
2018-07-04T02:01:04.583Z,23.12
2018-07-04T02:03:50.159Z,23.08
2018-07-04T02:06:35.439Z,23.16
2018-07-04T02:09:20.999Z,23.19
2018-07-04T02:12:06.191Z,23.16
2018-07-04T02:14:52.775Z,23.28
2018-07-04T02:17:37.690Z,23.50
2018-07-04T02:20:22.886Z,23.52
2018-07-04T02:23:08.310Z,23.53
2018-07-04T02:25:53.419Z,23.53
2018-07-04T02:28:38.242Z,23.42
2018-07-04T02:31:23.414Z,23.50
2018-07-04T02:34:08.683Z,23.26
2018-07-04T02:36:53.846Z,23.18
2018-07-04T02:39:39.057Z,23.07
2018-07-04T02:42:24.093Z,23.23
2018-07-04T02:45:09.229Z,23.17
2018-07-04T02:47:54.394Z,23.02
2018-07-04T02:50:40.004Z,23.09
2018-07-04T02:53:25.482Z,23.17
2018-07-04T02:56:10.505Z,23.23
2018-07-04T02:58:55.353Z,23.29
2018-07-04T03:01:40.560Z,23.11
2018-07-04T03:04:25.546Z,22.92
2018-07-04T03:07:10.373Z,22.92
2018-07-04T03:09:55.403Z,22.86
2018-07-04T03:12:40.984Z,23.05
2018-07-04T03:15:26.160Z,23.11
2018-07-04T03:18:11.738Z,23.17
2018-07-04T03:20:57.067Z,22.92
2018-07-04T03:23:42.325Z,22.98
2018-07-04T03:26:27.450Z,23.07
2018-07-04T03:29:12.990Z,23.07
2018-07-04T03:31:58.294Z,23.15
2018-07-04T03:34:43.586Z,23.21
2018-07-04T03:37:28.957Z,23.22
2018-07-04T03:40:14.430Z,23.23
2018-07-04T03:42:59.713Z,23.24
2018-07-04T03:45:44.973Z,23.39
2018-07-04T03:48:30.360Z,23.40
2018-07-04T03:51:15.270Z,23.37
2018-07-04T03:54:00.482Z,23.43
2018-07-04T03:56:45.665Z,23.49
2018-07-04T03:59:31.039Z,23.47
2018-07-04T04:02:15.991Z,23.30
2018-07-04T04:05:01.092Z,23.28
2018-07-04T04:07:46.567Z,23.36
2018-07-04T04:10:31.920Z,23.37
2018-07-04T04:13:17.114Z,23.41
2018-07-04T04:16:02.256Z,23.49
2018-07-04T04:18:47.312Z,23.43
2018-07-04T04:21:32.523Z,23.42
2018-07-04T04:24:17.858Z,23.50
2018-07-04T04:27:03.829Z,23.42
2018-07-04T04:29:48.749Z,23.43
2018-07-04T04:32:33.984Z,23.50
2018-07-04T04:35:19.111Z,23.62
2018-07-04T04:38:04.326Z,23.57
2018-07-04T04:40:49.589Z,23.63
2018-07-04T04:43:35.078Z,23.66
2018-07-04T04:46:20.011Z,23.77
2018-07-04T04:49:04.806Z,23.87
2018-07-04T04:51:49.978Z,24.02
2018-07-04T04:54:35.355Z,24.04
2018-07-04T04:57:20.157Z,24.14
2018-07-04T05:00:04.869Z,24.26
2018-07-04T05:02:50.253Z,24.18
2018-07-04T05:05:35.408Z,24.28
2018-07-04T05:08:20.605Z,24.37
2018-07-04T05:11:06.395Z,24.38
2018-07-04T05:13:51.767Z,24.46
2018-07-04T05:16:36.925Z,24.57
2018-07-04T05:19:21.853Z,24.57
2018-07-04T05:22:06.858Z,24.68
2018-07-04T05:24:52.247Z,24.60
2018-07-04T05:27:37.514Z,24.62
2018-07-04T05:30:23.000Z,24.63
2018-07-04T05:33:08.149Z,24.53
2018-07-04T05:35:53.387Z,24.68
2018-07-04T05:38:38.917Z,24.82
2018-07-04T05:41:24.223Z,24.79
2018-07-04T05:44:09.465Z,24.91
2018-07-04T05:46:54.846Z,25.05
2018-07-04T05:49:40.225Z,24.94
2018-07-04T05:52:25.225Z,25.07
2018-07-04T05:55:10.557Z,25.26
2018-07-04T05:57:55.589Z,25.19
2018-07-04T06:00:40.801Z,25.26
2018-07-04T06:03:25.725Z,25.12
2018-07-04T06:06:11.046Z,25.19
2018-07-04T06:08:56.201Z,25.32
2018-07-04T06:11:41.283Z,25.28
2018-07-04T06:14:26.301Z,25.54
2018-07-04T06:17:11.309Z,25.82
2018-07-04T06:19:56.386Z,26.01
2018-07-04T06:22:41.659Z,25.98
2018-07-04T06:25:26.827Z,25.88
2018-07-04T06:28:11.748Z,26.00
2018-07-04T06:30:56.806Z,25.72
2018-07-04T06:33:41.933Z,26.00
2018-07-04T06:36:26.921Z,26.02
2018-07-04T06:38:59.581Z,25.84
2018-07-04T06:41:26.216Z,26.03
2018-07-04T06:43:52.895Z,26.28
2018-07-04T06:46:19.518Z,26.46
2018-07-04T06:48:46.178Z,26.37
2018-07-04T06:51:12.766Z,26.32
2018-07-04T06:53:39.249Z,26.33
2018-07-04T06:56:05.932Z,26.29
2018-07-04T06:58:32.573Z,26.56
2018-07-04T07:00:59.209Z,26.54
2018-07-04T07:03:38.438Z,26.52
2018-07-04T07:06:23.475Z,26.41
2018-07-04T07:09:08.686Z,26.76
2018-07-04T07:11:53.897Z,26.63
2018-07-04T07:14:39.234Z,26.48
2018-07-04T07:17:24.505Z,26.61
2018-07-04T07:20:09.882Z,26.52
2018-07-04T07:22:55.272Z,26.85
2018-07-04T07:25:40.765Z,27.09
2018-07-04T07:28:25.679Z,27.09
2018-07-04T07:31:10.901Z,27.34
2018-07-04T07:33:56.398Z,27.55
2018-07-04T07:36:41.967Z,27.31
2018-07-04T07:39:26.853Z,27.56
2018-07-04T07:42:12.107Z,27.36
2018-07-04T07:44:57.569Z,27.42
2018-07-04T07:47:42.951Z,27.61
2018-07-04T07:50:28.146Z,27.73
2018-07-04T07:53:13.391Z,27.58
2018-07-04T07:55:58.128Z,27.58
2018-07-04T07:58:43.061Z,27.65
2018-07-04T08:01:28.304Z,27.59
2018-07-04T08:04:16.122Z,27.38
2018-07-04T08:07:01.551Z,27.57
2018-07-04T08:09:47.102Z,27.83
2018-07-04T08:12:32.429Z,27.78
2018-07-04T08:15:18.740Z,28.01
2018-07-04T08:18:03.830Z,28.01
2018-07-04T08:20:49.112Z,28.25
2018-07-04T08:23:33.990Z,28.27
2018-07-04T08:26:19.098Z,28.19
2018-07-04T08:29:04.407Z,28.46
2018-07-04T08:31:49.286Z,28.44
2018-07-04T08:34:34.301Z,28.22
2018-07-04T08:37:19.338Z,28.39
2018-07-04T08:40:04.534Z,28.48
2018-07-04T08:42:49.735Z,28.52
2018-07-04T08:45:34.794Z,28.76
2018-07-04T08:48:19.972Z,28.77
2018-07-04T08:51:04.970Z,28.85
2018-07-04T08:53:50.421Z,28.90
2018-07-04T08:56:35.863Z,28.94
2018-07-04T08:59:21.168Z,29.05
2018-07-04T09:02:07.209Z,29.04
2018-07-04T09:04:52.959Z,29.13
2018-07-04T09:07:39.072Z,28.95
2018-07-04T09:10:24.729Z,28.75
2018-07-04T09:13:10.484Z,29.02
2018-07-04T09:15:55.921Z,29.18
2018-07-04T09:18:41.803Z,29.33
2018-07-04T09:21:27.677Z,29.32
2018-07-04T09:24:13.101Z,29.27
2018-07-04T09:26:59.170Z,29.30
2018-07-04T09:29:45.112Z,29.25
2018-07-04T09:32:31.039Z,29.35
2018-07-04T09:35:16.486Z,29.45
2018-07-04T09:38:01.993Z,29.41
2018-07-04T09:40:47.373Z,29.37
2018-07-04T09:43:32.932Z,29.52
2018-07-04T09:46:18.947Z,29.72
2018-07-04T09:49:04.440Z,29.75
2018-07-04T09:51:50.162Z,29.82
2018-07-04T09:54:35.923Z,29.65
2018-07-04T09:57:21.233Z,29.56
2018-07-04T10:00:07.157Z,29.63
2018-07-04T10:02:52.425Z,29.85
2018-07-04T10:05:38.167Z,30.00
2018-07-04T10:08:23.690Z,30.08
2018-07-04T10:11:09.951Z,30.19
2018-07-04T10:13:55.505Z,30.06
2018-07-04T10:16:41.193Z,30.16
2018-07-04T10:19:26.714Z,30.11
2018-07-04T10:22:12.212Z,30.12
2018-07-04T10:24:57.590Z,30.18
2018-07-04T10:27:43.723Z,30.31
2018-07-04T10:30:29.237Z,30.33
2018-07-04T10:33:14.524Z,30.49
2018-07-04T10:35:59.705Z,30.44
2018-07-04T10:38:45.142Z,30.48
2018-07-04T10:41:30.522Z,30.46
2018-07-04T10:44:16.469Z,30.33
2018-07-04T10:47:01.985Z,30.53
2018-07-04T10:49:47.708Z,30.46
2018-07-04T10:52:33.776Z,30.66
2018-07-04T10:55:19.413Z,30.74
2018-07-04T10:58:06.381Z,30.75
2018-07-04T11:00:52.159Z,30.84
2018-07-04T11:03:38.188Z,30.86
2018-07-04T11:06:24.177Z,30.81
2018-07-04T11:09:10.234Z,30.82
2018-07-04T11:11:56.219Z,30.88
2018-07-04T11:14:42.316Z,30.67
2018-07-04T11:17:27.835Z,30.81
2018-07-04T11:20:13.774Z,30.98
2018-07-04T11:22:59.210Z,31.03
2018-07-04T11:25:45.147Z,31.04
2018-07-04T11:28:31.048Z,31.05
2018-07-04T11:31:17.321Z,31.20
2018-07-04T11:34:03.294Z,31.20
2018-07-04T11:36:48.744Z,30.99
2018-07-04T11:39:34.738Z,31.10
2018-07-04T11:42:20.831Z,31.15
2018-07-04T11:45:06.726Z,31.03
2018-07-04T11:47:40.478Z,31.07
2018-07-04T11:50:08.200Z,31.06
2018-07-04T11:52:36.286Z,31.10
2018-07-04T11:55:04.228Z,31.24
2018-07-04T11:57:32.080Z,31.25
2018-07-04T12:00:00.107Z,31.27
2018-07-04T12:02:27.632Z,31.21
2018-07-04T12:05:07.941Z,31.11
2018-07-04T12:07:41.594Z,31.11
2018-07-04T12:10:09.149Z,30.92
2018-07-04T12:12:36.530Z,31.00
2018-07-04T12:15:04.282Z,31.13
2018-07-04T12:17:31.756Z,31.40
2018-07-04T12:20:00.315Z,31.37
2018-07-04T12:22:27.231Z,31.41
2018-07-04T12:24:53.928Z,31.01
2018-07-04T12:27:21.741Z,30.80
2018-07-04T12:29:49.604Z,30.99
2018-07-04T12:32:16.865Z,31.15
2018-07-04T12:34:44.532Z,31.25
2018-07-04T12:37:12.039Z,31.25
2018-07-04T12:39:40.232Z,31.22
2018-07-04T12:42:07.153Z,31.23
2018-07-04T12:44:34.695Z,31.29
2018-07-04T12:47:02.244Z,31.23
2018-07-04T12:49:29.991Z,31.36
2018-07-04T12:51:57.714Z,31.26
2018-07-04T12:54:30.607Z,31.40
2018-07-04T12:57:10.165Z,31.42
2018-07-04T12:59:55.923Z,31.51
2018-07-04T13:02:41.863Z,31.30
2018-07-04T13:05:27.923Z,31.27
2018-07-04T13:08:14.170Z,31.25
2018-07-04T13:11:00.352Z,31.45
2018-07-04T13:13:46.182Z,31.50
2018-07-04T13:16:32.488Z,31.30
2018-07-04T13:19:19.167Z,31.23
2018-07-04T13:22:05.720Z,31.18
2018-07-04T13:24:51.437Z,31.03
2018-07-04T13:27:36.524Z,31.04
2018-07-04T13:30:21.589Z,31.30
2018-07-04T13:33:06.562Z,31.22
2018-07-04T13:35:51.873Z,31.31
2018-07-04T13:38:37.350Z,31.41
2018-07-04T13:41:22.631Z,31.24
2018-07-04T13:44:07.765Z,31.05
2018-07-04T13:46:53.180Z,31.07
2018-07-04T13:49:38.517Z,31.08
2018-07-04T13:52:24.028Z,31.20
2018-07-04T13:55:09.274Z,31.39
2018-07-04T13:57:54.371Z,31.44
2018-07-04T14:00:39.503Z,31.24
2018-07-04T14:03:24.821Z,31.17
2018-07-04T14:06:10.056Z,31.38
2018-07-04T14:08:55.524Z,31.50
2018-07-04T14:11:40.785Z,31.56
2018-07-04T14:14:25.925Z,31.56
2018-07-04T14:17:11.287Z,31.48
2018-07-04T14:19:56.833Z,31.18
2018-07-04T14:22:42.245Z,31.13
2018-07-04T14:25:27.586Z,31.24
2018-07-04T14:28:12.777Z,31.36
2018-07-04T14:30:58.147Z,31.20
2018-07-04T14:33:43.729Z,31.24
2018-07-04T14:36:29.023Z,31.04
2018-07-04T14:39:14.368Z,31.11
2018-07-04T14:41:59.897Z,30.97
2018-07-04T14:44:45.230Z,30.96
2018-07-04T14:47:30.632Z,31.09
2018-07-04T14:50:15.873Z,30.13
2018-07-04T14:53:01.082Z,30.09
2018-07-04T14:55:46.322Z,29.54
2018-07-04T14:58:31.383Z,29.41
2018-07-04T15:01:16.654Z,28.98
2018-07-04T15:04:01.665Z,28.71
2018-07-04T15:06:46.589Z,28.19
2018-07-04T15:09:31.665Z,28.39
2018-07-04T15:12:16.638Z,28.59
2018-07-04T15:17:58.814Z,27.24
2018-07-04T15:20:43.825Z,27.16
2018-07-04T15:23:29.228Z,26.45
2018-07-04T15:26:14.587Z,27.15
2018-07-04T15:29:00.088Z,26.88
2018-07-04T15:31:45.462Z,27.05
2018-07-04T15:34:30.436Z,27.05
2018-07-04T15:37:15.466Z,26.59
2018-07-04T15:40:00.734Z,26.85
2018-07-04T15:42:46.013Z,26.90
2018-07-04T15:45:31.398Z,27.24
2018-07-04T15:48:16.376Z,26.59
2018-07-04T15:51:01.241Z,26.32
2018-07-04T15:53:46.404Z,26.94
2018-07-04T15:56:31.900Z,27.55
2018-07-04T15:59:16.933Z,27.02
2018-07-04T16:02:02.015Z,27.19
2018-07-04T16:04:46.805Z,27.49
2018-07-04T16:07:31.616Z,27.74
2018-07-04T16:10:16.606Z,27.43
2018-07-04T16:13:01.919Z,27.56
2018-07-04T16:15:47.089Z,26.81
2018-07-04T16:18:32.187Z,26.51
2018-07-04T16:21:17.537Z,26.14
2018-07-04T16:24:02.403Z,25.98
2018-07-04T16:26:47.738Z,25.83
2018-07-04T16:29:32.956Z,25.98
2018-07-04T16:32:18.069Z,26.19
2018-07-04T16:35:03.469Z,26.14
2018-07-04T16:37:48.961Z,26.01
2018-07-04T16:40:34.354Z,25.00
2018-07-04T16:43:19.297Z,23.80
2018-07-04T16:46:04.601Z,23.67
2018-07-04T16:48:49.762Z,23.67
2018-07-04T16:51:35.039Z,23.64
2018-07-04T16:54:20.678Z,23.52
2018-07-04T16:57:05.828Z,23.47
2018-07-04T16:59:51.131Z,23.76
2018-07-04T17:02:36.431Z,23.65
2018-07-04T17:05:21.675Z,23.63
2018-07-04T17:08:06.999Z,23.56
2018-07-04T17:10:52.126Z,23.17
2018-07-04T17:13:37.526Z,23.35
2018-07-04T17:19:11.664Z,23.68
2018-07-04T17:21:56.619Z,23.16
2018-07-04T17:24:41.430Z,23.24
2018-07-04T17:27:26.231Z,23.30
2018-07-04T17:30:11.089Z,23.18
2018-07-04T17:32:56.083Z,23.09
2018-07-04T17:35:40.962Z,23.13
2018-07-04T17:38:26.133Z,23.20
2018-07-04T17:41:10.893Z,23.13
2018-07-04T17:43:55.740Z,23.34
2018-07-04T17:46:40.609Z,23.10
2018-07-04T17:49:25.647Z,22.77
2018-07-04T17:52:10.874Z,23.00
2018-07-04T17:54:55.749Z,23.12
2018-07-04T17:57:40.753Z,23.37
2018-07-04T18:00:25.641Z,23.63
2018-07-04T18:03:10.546Z,23.50
2018-07-04T18:05:55.456Z,23.31
2018-07-04T18:08:40.709Z,23.37
2018-07-04T18:11:25.849Z,23.17
2018-07-04T18:14:10.797Z,23.04
2018-07-04T18:16:55.829Z,22.78
2018-07-04T18:19:41.014Z,22.50
2018-07-04T18:22:25.775Z,22.75
2018-07-04T18:25:10.930Z,22.34
2018-07-04T18:27:55.581Z,22.40
2018-07-04T18:30:40.767Z,22.81
2018-07-04T18:33:25.753Z,22.79
2018-07-04T18:36:10.705Z,22.57
2018-07-04T18:38:55.518Z,22.78
2018-07-04T18:41:40.312Z,22.81
2018-07-04T18:44:25.114Z,22.82
2018-07-04T18:47:10.150Z,22.95
2018-07-04T18:49:55.119Z,22.86
2018-07-04T18:52:40.489Z,22.83
2018-07-04T18:55:25.471Z,22.65
2018-07-04T18:58:10.285Z,22.56
2018-07-04T19:00:55.252Z,22.65
2018-07-04T19:06:18.718Z,22.75
2018-07-04T19:09:04.302Z,22.85
2018-07-04T19:11:49.200Z,22.81
2018-07-04T19:14:34.031Z,22.76
2018-07-04T19:17:18.851Z,22.60
2018-07-04T19:20:04.013Z,22.64
2018-07-04T19:22:49.195Z,22.52
2018-07-04T19:25:34.072Z,22.58
2018-07-04T19:28:18.827Z,22.46
2018-07-04T19:31:03.721Z,22.58
2018-07-04T19:33:48.474Z,22.56
2018-07-04T19:36:33.311Z,22.43
2018-07-04T19:39:18.165Z,22.44
2018-07-04T19:42:03.147Z,22.41
2018-07-04T19:44:47.842Z,22.32
2018-07-04T19:47:32.667Z,22.29
2018-07-04T19:50:17.667Z,22.31
2018-07-04T19:53:02.641Z,22.40
2018-07-04T19:55:47.970Z,22.54
2018-07-04T19:58:32.681Z,22.25
2018-07-04T20:01:17.790Z,22.45
2018-07-04T20:04:02.877Z,22.32
2018-07-04T20:06:48.044Z,22.40
2018-07-04T20:09:32.701Z,22.57
2018-07-04T20:12:17.490Z,22.37
2018-07-04T20:15:02.266Z,22.29
2018-07-04T20:17:47.394Z,22.20
2018-07-04T20:20:32.437Z,22.23
2018-07-04T20:23:17.787Z,22.33
2018-07-04T20:26:03.017Z,22.30
2018-07-04T20:28:47.854Z,22.42
2018-07-04T20:31:33.055Z,22.32
2018-07-04T20:34:18.534Z,22.58
2018-07-04T20:37:03.698Z,22.61
2018-07-04T20:39:48.874Z,22.50
2018-07-04T20:42:34.555Z,22.47
2018-07-04T20:45:19.582Z,22.30
2018-07-04T20:48:04.888Z,22.48
2018-07-04T20:50:50.274Z,22.45
2018-07-04T20:53:35.549Z,22.22
2018-07-04T20:56:20.926Z,22.25
2018-07-04T20:59:06.093Z,22.26
2018-07-04T21:01:50.914Z,22.34
2018-07-04T21:04:35.821Z,22.53
2018-07-04T21:07:21.241Z,22.50
2018-07-04T21:10:06.852Z,22.66
2018-07-04T21:12:52.633Z,22.68
2018-07-04T21:15:37.724Z,22.55
2018-07-04T21:18:23.211Z,22.43
2018-07-04T21:21:09.198Z,22.18
2018-07-04T21:23:55.027Z,22.33
2018-07-04T21:26:40.898Z,22.43
2018-07-04T21:29:27.095Z,22.39
2018-07-04T21:32:13.039Z,22.09
2018-07-04T21:34:58.509Z,22.05
2018-07-04T21:37:43.640Z,22.18
2018-07-04T21:40:28.849Z,22.11
2018-07-04T21:43:14.107Z,22.27
2018-07-04T21:45:59.704Z,22.31
2018-07-04T21:48:45.389Z,22.44
2018-07-04T21:51:30.858Z,22.67
2018-07-04T21:54:16.530Z,22.52
2018-07-04T21:57:01.678Z,22.14
2018-07-04T21:59:47.052Z,21.94
2018-07-04T22:02:31.944Z,22.04
2018-07-04T22:05:17.110Z,22.18
2018-07-04T22:08:02.487Z,22.28
2018-07-04T22:10:47.751Z,22.33
2018-07-04T22:13:33.337Z,22.12
2018-07-04T22:16:19.016Z,21.93
2018-07-04T22:19:04.401Z,21.78
2018-07-04T22:21:49.217Z,21.83
2018-07-04T22:24:34.143Z,21.79
2018-07-04T22:27:19.525Z,22.11
2018-07-04T22:30:04.865Z,21.99
2018-07-04T22:32:49.883Z,22.06
2018-07-04T22:35:34.747Z,22.18
2018-07-04T22:38:19.743Z,22.37
2018-07-04T22:41:04.945Z,22.47
2018-07-04T22:43:50.294Z,22.48
2018-07-04T22:46:35.491Z,22.43
2018-07-04T22:49:20.969Z,22.40
2018-07-04T22:52:06.060Z,22.59
2018-07-04T22:54:51.006Z,22.60
2018-07-04T22:57:36.381Z,22.51
2018-07-04T23:00:21.246Z,22.40
2018-07-04T23:03:06.051Z,22.08
2018-07-04T23:05:50.983Z,22.27
2018-07-04T23:08:36.248Z,22.27
2018-07-04T23:11:21.630Z,22.17
2018-07-04T23:14:06.615Z,22.13
2018-07-04T23:16:51.762Z,22.11
2018-07-04T23:19:37.241Z,21.78
2018-07-04T23:22:22.512Z,21.49
2018-07-04T23:25:07.516Z,21.80
2018-07-04T23:27:52.755Z,21.98
2018-07-04T23:30:38.431Z,21.97
2018-07-04T23:33:23.311Z,21.76
2018-07-04T23:36:08.365Z,21.54
2018-07-04T23:38:53.954Z,21.62
2018-07-04T23:41:39.023Z,21.79
2018-07-04T23:44:24.298Z,21.34
2018-07-04T23:47:09.273Z,21.52
2018-07-04T23:49:54.230Z,21.41
2018-07-04T23:52:38.994Z,21.46
2018-07-04T23:55:24.171Z,21.62
2018-07-04T23:58:09.743Z,21.63
